Auburndale, FL

3:58 PM EST on November 21, 2014 (GMT -0500)
Winter Haven's-Gilbert | Change Station
CLOSE
Current Station
Airport
Location: Winter Haven,
Elevation: 144 ft
Nearby Weather Stations

Elev 144 ft 28.06 °N, 81.75 °W | Updated 5 minutes ago

Partly Cloudy
Partly Cloudy
71 °F
Feels Like 71 °F
N
18
Wind Variable Wind from ENE

Today
High -- | Low -- °F
--% Chance of Precip.
Yesterday
High -- | Low -- °F
Precip. -- in
6:53 AM 5:32 PM
Waning Crescent, 0% visible
Pressure 30.24 in
Visibility 10.0 miles
Clouds Overcast 9000 ft
Dew Point 53 °F
Humidity 53%
Rainfall 0.00 in
Snow Depth Not available.
UV 0 out of 12
Pollen 4.20 out of 12
Air Quality Not available.
Flu Activity Not available.
METAR KGIF 212053Z AUTO 06016KT 10SM OVC090 22/12 A3024 RMK AO2 SLP238 T02170117 55004

More Conditions Fewer Conditions

Pressure 30.24 in
Visibility 10.0 miles
Clouds Overcast 9000 ft
Dew Point 53 °F
Humidity 53%
Rainfall 0.00 in
Snow Depth Not available.
UV 0 out of 12
Pollen 4.20 out of 12
Air Quality Not available.
Flu Activity Not available.
METAR KGIF 212053Z AUTO 06016KT 10SM OVC090 22/12 A3024 RMK AO2 SLP238 T02170117 55004

More Conditions Fewer Conditions

10-Day Weather Forecast

Almanac

Astronomy

Nov. 21, 2014 Rise Set
Actual Time
Civil Twilight
Nautical Twilight
Astronomical Twilight
Moon
Length of Visible Light
Length of Day
Tomorrow will be .
, % of the Moon is Illuminated

Today's Extremes

State Highs State Lows

Community

WunderPhotos

Upload Photos

1,772,713 photos uploaded!

WunderBlogs® & News

Nearby

Air Quality

  Air Quality AQ Index Pollutant
Not available.

Snow Depth

Station Depth Elevation

Earthquake Activity

City Distance Mag. Time & Date
Minimum magnitude displayed is 2.5.

Coastal Water Temperatures

Place Temperature

Nearby Weather Stations